createdAt,value
2022-12-13T00:02:10.369Z,97210.66
2022-12-13T00:04:38.516Z,97202.94
2022-12-13T00:07:08.291Z,97202.06
2022-12-13T00:09:36.368Z,97200.34
2022-12-13T00:12:04.780Z,97194.34
2022-12-13T00:14:33.792Z,97196.91
2022-12-13T00:17:02.048Z,97198.63
2022-12-13T00:19:30.372Z,97184.03
2022-12-13T00:21:58.557Z,97198.63
2022-12-13T00:24:28.079Z,97199.50
2022-12-13T00:26:56.673Z,97193.47
2022-12-13T00:29:24.783Z,97188.34
2022-12-13T00:32:00.222Z,97193.50
2022-12-13T00:34:29.422Z,97190.06
2022-12-13T00:36:59.237Z,97200.34
2022-12-13T00:39:29.542Z,97179.75
2022-12-13T00:41:57.900Z,97194.34
2022-12-13T00:44:26.273Z,97183.16
2022-12-13T00:46:54.796Z,97193.47
2022-12-13T00:49:22.998Z,97196.06
2022-12-13T00:51:51.190Z,97198.63
2022-12-13T00:54:19.909Z,97202.06
2022-12-13T00:56:51.374Z,97196.03
2022-12-13T00:59:19.652Z,97184.88
2022-12-13T01:01:47.846Z,97205.47
2022-12-13T01:04:16.148Z,97211.50
2022-12-13T01:06:45.964Z,97212.34
2022-12-13T01:09:18.410Z,97208.91
2022-12-13T01:11:47.569Z,97217.47
2022-12-13T01:14:17.639Z,97195.16
2022-12-13T01:16:46.007Z,97200.31
2022-12-13T01:19:14.196Z,97204.59
2022-12-13T01:21:42.283Z,97215.78
2022-12-13T01:24:10.489Z,97198.59
2022-12-13T01:26:38.694Z,97219.19
2022-12-13T01:29:07.041Z,97220.06
2022-12-13T01:31:37.573Z,97205.47
2022-12-13T01:34:13.134Z,97211.50
2022-12-13T01:36:43.639Z,97215.78
2022-12-13T01:39:15.140Z,97208.91
2022-12-13T01:41:45.525Z,97208.91
2022-12-13T01:44:50.849Z,97223.47
2022-12-13T01:47:25.153Z,97216.59
2022-12-13T01:49:55.783Z,97200.28
2022-12-13T01:52:24.317Z,97212.31
2022-12-13T01:54:57.057Z,97214.03
2022-12-13T01:57:34.435Z,97204.56
2022-12-13T02:00:03.180Z,97214.88
2022-12-13T02:02:37.438Z,97213.97
2022-12-13T02:05:09.908Z,97219.13
2022-12-13T02:07:39.391Z,97217.41
2022-12-13T02:10:09.550Z,97212.25
2022-12-13T02:12:39.384Z,97218.22
2022-12-13T02:15:12.003Z,97214.78
2022-12-13T02:17:57.333Z,97213.97
2022-12-13T02:20:55.857Z,97200.19
2022-12-13T02:24:00.215Z,97213.97
2022-12-13T02:26:52.059Z,97225.94
2022-12-13T02:29:44.741Z,97203.63
2022-12-13T02:32:18.995Z,97213.97
2022-12-13T02:34:52.725Z,97206.19
2022-12-13T02:37:26.476Z,97210.47
2022-12-13T02:40:01.379Z,97200.19
2022-12-13T02:42:36.106Z,97205.31
2022-12-13T02:45:09.756Z,97190.69
2022-12-13T02:47:43.418Z,97212.19
2022-12-13T02:50:15.135Z,97204.44
2022-12-13T02:52:46.717Z,97204.44
2022-12-13T02:55:18.007Z,97201.00
2022-12-13T02:57:48.702Z,97201.88
2022-12-13T03:00:20.526Z,97199.28
2022-12-13T03:03:03.105Z,97207.88
2022-12-13T03:05:58.550Z,97197.56
2022-12-13T03:08:33.561Z,97200.13
2022-12-13T03:11:07.023Z,97203.56
2022-12-13T03:13:44.546Z,97196.69
2022-12-13T03:16:23.041Z,97202.69
2022-12-13T03:18:54.527Z,97200.13
2022-12-13T03:21:23.662Z,97198.41
2022-12-13T03:23:51.888Z,97208.75
2022-12-13T03:26:23.340Z,97201.88
2022-12-13T03:28:51.976Z,97208.69
2022-12-13T03:31:21.025Z,97206.09
2022-12-13T03:33:49.334Z,97200.06
2022-12-13T03:36:19.936Z,97200.09
2022-12-13T03:38:52.432Z,97193.19
2022-12-13T03:41:23.991Z,97199.22
2022-12-13T03:43:52.231Z,97196.59
2022-12-13T03:46:20.414Z,97198.34
2022-12-13T03:48:48.606Z,97197.47
2022-12-13T03:51:18.145Z,97190.59
2022-12-13T03:53:46.332Z,97199.19
2022-12-13T03:56:14.484Z,97199.22
2022-12-13T03:58:43.335Z,97201.78
2022-12-13T04:01:13.569Z,97206.03
2022-12-13T04:03:44.173Z,97194.97
2022-12-13T04:06:13.351Z,97191.50
2022-12-13T04:08:53.154Z,97192.34
2022-12-13T04:11:42.793Z,97208.63
2022-12-13T04:14:11.776Z,97212.91
2022-12-13T04:16:40.630Z,97206.91
2022-12-13T04:19:08.764Z,97211.16
2022-12-13T04:21:36.939Z,97202.59
2022-12-13T04:24:06.939Z,97203.47
2022-12-13T04:26:35.022Z,97208.63
2022-12-13T04:29:03.212Z,97194.88
2022-12-13T04:31:31.425Z,97193.16
2022-12-13T04:33:59.605Z,97201.72
2022-12-13T04:36:32.588Z,97210.25
2022-12-13T04:39:01.964Z,97200.84
2022-12-13T04:41:36.070Z,97210.28
2022-12-13T04:44:05.293Z,97209.41
2022-12-13T04:46:33.899Z,97195.69
2022-12-13T04:49:02.456Z,97184.56
2022-12-13T04:51:31.408Z,97202.56
2022-12-13T04:54:13.025Z,97193.13
2022-12-13T04:56:50.121Z,97189.66
2022-12-13T04:59:18.692Z,97195.72
2022-12-13T05:01:46.778Z,97194.00
2022-12-13T05:04:14.881Z,97189.66
2022-12-13T05:06:43.081Z,97193.09
2022-12-13T05:09:11.754Z,97205.94
2022-12-13T05:11:45.863Z,97203.34
2022-12-13T05:14:23.207Z,97201.72
2022-12-13T05:16:52.110Z,97201.75
2022-12-13T05:19:20.486Z,97177.69
2022-12-13T05:21:49.789Z,97201.72
2022-12-13T05:24:19.053Z,97203.38
2022-12-13T05:26:47.116Z,97199.94
2022-12-13T05:29:15.271Z,97201.69
2022-12-13T05:31:45.054Z,97201.63
2022-12-13T05:34:13.308Z,97203.34
2022-12-13T05:36:42.057Z,97205.91
2022-12-13T05:39:28.817Z,97210.19
2022-12-13T05:42:01.133Z,97211.91
2022-12-13T05:44:29.875Z,97189.63
2022-12-13T05:46:59.558Z,97191.34
2022-12-13T05:49:30.590Z,97190.50
2022-12-13T05:51:58.783Z,97201.59
2022-12-13T05:54:26.863Z,97203.28
2022-12-13T05:56:54.948Z,97189.63
2022-12-13T05:59:23.452Z,97192.19
2022-12-13T06:01:51.630Z,97196.47
2022-12-13T06:04:22.858Z,97168.13
2022-12-13T06:06:52.033Z,97170.72
2022-12-13T06:09:20.396Z,97187.88
2022-12-13T06:11:48.670Z,97166.31
2022-12-13T06:14:21.827Z,97190.41
2022-12-13T06:16:51.894Z,97196.38
2022-12-13T06:19:24.772Z,97186.06
2022-12-13T06:21:55.485Z,97199.84
2022-12-13T06:24:25.292Z,97198.09
2022-12-13T06:26:54.617Z,97198.97
2022-12-13T06:29:25.675Z,97204.94
2022-12-13T06:32:00.992Z,97200.69
2022-12-13T06:34:34.478Z,97197.28
2022-12-13T06:37:04.852Z,97187.84
2022-12-13T06:39:33.766Z,97188.66
2022-12-13T06:42:03.516Z,97187.88
2022-12-13T06:44:31.758Z,97179.25
2022-12-13T06:47:10.026Z,97198.16
2022-12-13T06:49:44.281Z,97186.19
2022-12-13T06:52:14.965Z,97193.88
2022-12-13T06:54:43.537Z,97184.47
2022-12-13T06:57:12.054Z,97191.38
2022-12-13T06:59:40.585Z,97193.09
2022-12-13T07:02:24.456Z,97186.28
2022-12-13T07:04:55.848Z,97185.50
2022-12-13T07:07:25.225Z,97170.13
2022-12-13T07:09:53.443Z,97194.22
2022-12-13T07:12:22.035Z,97199.41
2022-12-13T07:14:50.222Z,97192.56
2022-12-13T07:17:33.255Z,97196.03
2022-12-13T07:20:07.884Z,97202.91
2022-12-13T07:22:43.001Z,97200.34
2022-12-13T07:25:28.091Z,97199.50
2022-12-13T07:28:03.084Z,97214.06
2022-12-13T07:30:32.597Z,97211.47
2022-12-13T07:33:01.995Z,97214.00
2022-12-13T07:35:36.981Z,97203.63
2022-12-13T07:38:07.208Z,97200.16
2022-12-13T07:40:35.733Z,97213.78
2022-12-13T07:43:04.584Z,97200.03
2022-12-13T07:45:32.871Z,97207.66
2022-12-13T07:48:05.569Z,97212.66
2022-12-13T07:50:36.902Z,97195.44
2022-12-13T07:53:07.272Z,97210.66
2022-12-13T07:55:35.882Z,97207.94
2022-12-13T07:58:08.717Z,97200.53
2022-12-13T08:00:37.186Z,97205.31
2022-12-13T08:03:06.008Z,97207.44
2022-12-13T08:05:38.787Z,97205.50
2022-12-13T08:08:09.212Z,97209.28
2022-12-13T08:10:38.006Z,97206.47
2022-12-13T08:13:07.346Z,97206.06
2022-12-13T08:15:35.473Z,97214.31
2022-12-13T08:18:04.172Z,97206.88
2022-12-13T08:20:32.399Z,97192.06
2022-12-13T08:23:02.713Z,97184.75
2022-12-13T08:25:31.773Z,97201.75
2022-12-13T08:28:01.966Z,97191.09
2022-12-13T08:30:32.666Z,97187.16
2022-12-13T08:33:04.737Z,97192.22
2022-12-13T08:35:35.020Z,97194.78
2022-12-13T08:38:05.327Z,97185.50
2022-12-13T08:40:33.518Z,97196.50
2022-12-13T08:43:01.762Z,97189.31
2022-12-13T08:45:31.743Z,97196.78
2022-12-13T08:48:00.825Z,97189.88
2022-12-13T08:50:29.252Z,97184.28
2022-12-13T08:52:57.698Z,97193.84
2022-12-13T08:55:31.620Z,97190.06
2022-12-13T08:58:04.867Z,97208.41
2022-12-13T09:00:35.660Z,97198.69
2022-12-13T09:03:04.801Z,97206.97
2022-12-13T09:05:35.184Z,97200.53
2022-12-13T09:08:13.263Z,97205.44
2022-12-13T09:10:59.690Z,97193.69
2022-12-13T09:13:32.488Z,97195.31
2022-12-13T09:16:05.248Z,97185.94
2022-12-13T09:18:42.407Z,97184.81
2022-12-13T09:21:13.464Z,97189.16
2022-12-13T09:23:50.281Z,97177.31
2022-12-13T09:26:25.494Z,97181.25
2022-12-13T09:28:53.884Z,97176.03
2022-12-13T09:31:22.642Z,97173.66
2022-12-13T09:33:50.894Z,97160.69
2022-12-13T09:36:21.375Z,97160.25
2022-12-13T09:38:49.808Z,97142.00
2022-12-13T09:41:28.578Z,97154.63
2022-12-13T09:44:01.719Z,97153.88
2022-12-13T09:46:34.266Z,97145.19
2022-12-13T09:49:22.977Z,97135.25
2022-12-13T09:52:11.169Z,97147.91
2022-12-13T09:54:49.388Z,97145.19
2022-12-13T09:57:32.387Z,97146.03
2022-12-13T10:00:03.487Z,97139.88
2022-12-13T10:02:44.855Z,97126.47
2022-12-13T10:05:22.580Z,97125.75
2022-12-13T10:07:55.840Z,97119.56
2022-12-13T10:10:24.954Z,97110.41
2022-12-13T10:13:00.007Z,97115.91
2022-12-13T10:15:29.439Z,97114.75
2022-12-13T10:17:58.448Z,97126.84
2022-12-13T10:20:30.056Z,97125.22
2022-12-13T10:25:51.296Z,97100.38
2022-12-13T10:28:27.819Z,97106.13
2022-12-13T10:30:57.052Z,97097.53
2022-12-13T10:33:28.411Z,97104.72
2022-12-13T10:36:14.137Z,97101.31
2022-12-13T10:38:44.211Z,97107.06
2022-12-13T10:41:35.376Z,97106.56
2022-12-13T10:44:17.430Z,97100.13
2022-12-13T10:46:51.089Z,97096.72
2022-12-13T10:49:23.077Z,97078.53
2022-12-13T10:51:52.686Z,97089.75
2022-12-13T10:54:28.168Z,97065.16
2022-12-13T10:57:00.345Z,97074.69
2022-12-13T10:59:35.124Z,97071.28
2022-12-13T11:02:21.703Z,97075.84
2022-12-13T11:04:50.308Z,97075.13
2022-12-13T11:07:27.000Z,97076.16
2022-12-13T11:09:55.193Z,97059.47
2022-12-13T11:12:26.086Z,97066.34
2022-12-13T11:14:59.283Z,97062.50
2022-12-13T11:17:29.449Z,97062.84
2022-12-13T11:19:59.209Z,97052.66
2022-12-13T11:22:29.930Z,97045.38
2022-12-13T11:25:02.611Z,97050.63
2022-12-13T11:27:51.095Z,97041.59
2022-12-13T11:30:25.598Z,97037.59
2022-12-13T11:33:14.636Z,97043.72
2022-12-13T11:35:54.717Z,97032.66
2022-12-13T11:38:32.042Z,97017.13
2022-12-13T11:41:07.590Z,97016.97
2022-12-13T11:43:41.466Z,97037.44
2022-12-13T11:46:18.966Z,97037.84
2022-12-13T11:48:52.998Z,97033.97
2022-12-13T11:51:28.311Z,97029.97
2022-12-13T11:54:01.431Z,97023.91
2022-12-13T11:56:35.363Z,97020.91
2022-12-13T11:59:25.998Z,97016.94
2022-12-13T12:02:05.063Z,97003.81
2022-12-13T12:04:40.573Z,97017.41
2022-12-13T12:07:32.341Z,97012.16
2022-12-13T12:10:15.422Z,97002.56
2022-12-13T12:12:50.768Z,97015.88
2022-12-13T12:15:26.583Z,97013.22
2022-12-13T12:17:57.303Z,96995.00
2022-12-13T12:20:43.193Z,96999.50
2022-12-13T12:23:21.821Z,97001.66
2022-12-13T12:25:57.047Z,96998.81
2022-12-13T12:28:33.069Z,96994.78
2022-12-13T12:31:09.955Z,96999.16
2022-12-13T12:33:51.256Z,96991.91
2022-12-13T12:36:40.813Z,97002.28
2022-12-13T12:39:33.245Z,97003.13
2022-12-13T12:42:28.679Z,96998.56
2022-12-13T12:45:17.443Z,96983.69
2022-12-13T12:48:48.960Z,96984.28
2022-12-13T12:51:03.942Z,96980.28
2022-12-13T12:53:40.921Z,96988.97
2022-12-13T12:56:32.833Z,96990.47
2022-12-13T12:59:13.604Z,96984.78
2022-12-13T13:01:54.014Z,96988.75
2022-12-13T13:04:28.085Z,96979.31
2022-12-13T13:07:02.159Z,96980.41
2022-12-13T13:09:31.480Z,96991.09
2022-12-13T13:12:29.733Z,96995.84
2022-12-13T13:14:52.002Z,96982.84
2022-12-13T13:17:47.143Z,96991.28
2022-12-13T13:20:25.158Z,96989.22
2022-12-13T13:23:17.510Z,96981.16
2022-12-13T13:26:16.032Z,96978.31
2022-12-13T13:28:43.621Z,96970.09
2022-12-13T13:31:12.848Z,96992.19
2022-12-13T13:33:46.849Z,96989.22
2022-12-13T13:36:48.356Z,96992.59
2022-12-13T13:39:19.720Z,96995.13
2022-12-13T13:41:57.152Z,96996.97
2022-12-13T13:45:03.469Z,96995.22
2022-12-13T13:47:43.167Z,97003.78
2022-12-13T13:50:47.548Z,97021.31
2022-12-13T13:53:56.005Z,97021.91
2022-12-13T13:56:45.496Z,97013.75
2022-12-13T14:00:03.859Z,97011.50
2022-12-13T14:03:22.073Z,97009.38
2022-12-13T14:06:49.857Z,97016.38
2022-12-13T14:09:41.248Z,97004.72
2022-12-13T14:12:42.202Z,97002.28
2022-12-13T14:15:49.828Z,97014.63
2022-12-13T14:19:07.219Z,97014.88
2022-12-13T14:21:56.551Z,97016.78
2022-12-13T14:24:47.118Z,97021.84
2022-12-13T14:27:40.618Z,97009.41
2022-12-13T14:30:28.255Z,97027.09
2022-12-13T14:32:59.153Z,97031.09
2022-12-13T14:35:29.383Z,97030.78
2022-12-13T14:37:59.970Z,97027.22
2022-12-13T14:40:32.020Z,97027.50
2022-12-13T14:43:00.958Z,97027.06
2022-12-13T14:45:31.585Z,97022.06
2022-12-13T14:48:04.614Z,97012.63
2022-12-13T14:50:36.771Z,97028.41
2022-12-13T14:53:06.858Z,97008.63
2022-12-13T14:55:37.533Z,97029.69
2022-12-13T14:58:19.852Z,97018.16
2022-12-13T15:00:48.607Z,97006.19
2022-12-13T15:03:26.274Z,97012.88
2022-12-13T15:05:57.343Z,97027.59
2022-12-13T15:08:26.217Z,97020.03
2022-12-13T15:10:56.806Z,97003.97
2022-12-13T15:13:30.158Z,97032.38
2022-12-13T15:16:01.725Z,97032.53
2022-12-13T15:18:50.726Z,97030.84
2022-12-13T15:21:27.900Z,97024.88
2022-12-13T15:24:00.685Z,97027.72
2022-12-13T15:26:33.555Z,97041.91
2022-12-13T15:29:10.411Z,97045.53
2022-12-13T15:31:40.580Z,97029.53
2022-12-13T15:34:36.013Z,97033.84
2022-12-13T15:37:08.071Z,97022.72
2022-12-13T15:39:58.911Z,97036.38
2022-12-13T15:42:33.445Z,97039.03
2022-12-13T15:45:03.985Z,97046.94
2022-12-13T15:47:32.767Z,97032.22
2022-12-13T15:50:04.767Z,97022.84
2022-12-13T15:52:36.235Z,97040.00
2022-12-13T15:55:28.689Z,97040.94
2022-12-13T15:57:58.811Z,97047.31
2022-12-13T16:00:31.355Z,97040.50
2022-12-13T16:03:09.746Z,97048.47
2022-12-13T16:05:43.176Z,97046.81
2022-12-13T16:08:25.358Z,97051.28
2022-12-13T16:10:54.669Z,97052.28
2022-12-13T16:13:27.281Z,97055.91
2022-12-13T16:16:00.426Z,97055.03
2022-12-13T16:18:46.169Z,97053.47
2022-12-13T16:21:15.970Z,97047.34
2022-12-13T16:23:48.800Z,97044.91
2022-12-13T16:26:23.749Z,97045.09
2022-12-13T16:28:52.021Z,97047.75
2022-12-13T16:31:22.404Z,97048.72
2022-12-13T16:33:51.119Z,97030.84
2022-12-13T16:36:21.882Z,97044.63
2022-12-13T16:38:51.138Z,97041.09
2022-12-13T16:41:19.620Z,97048.13
2022-12-13T16:43:56.204Z,97027.69
2022-12-13T16:47:14.998Z,97045.03
2022-12-13T16:49:21.375Z,97034.75
2022-12-13T16:51:51.687Z,97033.13
2022-12-13T16:54:21.421Z,97032.22
2022-12-13T16:56:54.203Z,97038.38
2022-12-13T16:59:25.271Z,97033.16
2022-12-13T17:01:54.542Z,97042.00
2022-12-13T17:04:27.742Z,97036.91
2022-12-13T17:06:58.740Z,97058.53
2022-12-13T17:09:27.219Z,97049.19
2022-12-13T17:11:56.293Z,97057.91
2022-12-13T17:14:25.250Z,97059.44
2022-12-13T17:16:54.937Z,97047.22
2022-12-13T17:19:24.944Z,97018.22
2022-12-13T17:21:56.987Z,97032.97
2022-12-13T17:24:28.044Z,97023.75
2022-12-13T17:26:58.567Z,97052.16
2022-12-13T17:29:29.119Z,97027.44
2022-12-13T17:31:58.567Z,97044.63
2022-12-13T17:34:28.563Z,97040.34
2022-12-13T17:36:58.617Z,97039.59
2022-12-13T17:39:29.560Z,97046.50
2022-12-13T17:41:58.184Z,97055.16
2022-12-13T17:44:26.635Z,97050.94
2022-12-13T17:46:56.140Z,97042.47
2022-12-13T17:49:25.450Z,97047.59
2022-12-13T17:51:54.890Z,97043.28
2022-12-13T17:54:25.359Z,97042.34
2022-12-13T17:56:56.645Z,97038.91
2022-12-13T17:59:25.761Z,97045.81
2022-12-13T18:01:55.411Z,97046.78
2022-12-13T18:04:23.987Z,97036.31
2022-12-13T18:06:53.829Z,97052.75
2022-12-13T18:09:22.698Z,97050.25
2022-12-13T18:11:51.416Z,97046.63
2022-12-13T18:14:24.392Z,97043.09
2022-12-13T18:16:53.753Z,97036.38
2022-12-13T18:19:26.489Z,97048.41
2022-12-13T18:21:56.869Z,97053.63
2022-12-13T18:24:27.396Z,97057.94
2022-12-13T18:26:57.167Z,97065.56
2022-12-13T18:29:28.578Z,97058.69
2022-12-13T18:31:58.057Z,97057.78
2022-12-13T18:34:27.134Z,97062.94
2022-12-13T18:36:56.901Z,97054.22
2022-12-13T18:39:26.023Z,97056.78
2022-12-13T18:41:55.640Z,97054.97
2022-12-13T18:44:26.864Z,97040.41
2022-12-13T18:47:01.701Z,97048.78
2022-12-13T18:49:31.176Z,97055.69
2022-12-13T18:52:03.563Z,97046.91
2022-12-13T18:54:33.073Z,97046.00
2022-12-13T18:57:03.258Z,97056.22
2022-12-13T18:59:34.671Z,97062.34
2022-12-13T19:02:05.910Z,97056.22
2022-12-13T19:04:37.705Z,97052.78
2022-12-13T19:07:08.522Z,97055.25
2022-12-13T19:09:39.246Z,97049.19
2022-12-13T19:12:10.237Z,97042.13
2022-12-13T19:14:41.196Z,97054.25
2022-12-13T19:17:12.546Z,97052.38
2022-12-13T19:19:42.901Z,97042.75
2022-12-13T19:22:19.762Z,97036.66
2022-12-13T19:24:49.908Z,97033.28
2022-12-13T19:27:21.317Z,97048.78
2022-12-13T19:29:55.660Z,97035.84
2022-12-13T19:32:32.049Z,97045.25
2022-12-13T19:35:03.062Z,97045.25
2022-12-13T19:37:33.554Z,97038.38
2022-12-13T19:40:06.068Z,97040.06
2022-12-13T19:42:39.618Z,97052.03
2022-12-13T19:45:19.964Z,97058.09
2022-12-13T19:47:52.783Z,97056.34
2022-12-13T19:50:23.080Z,97056.19
2022-12-13T19:52:53.195Z,97053.56
2022-12-13T19:55:24.048Z,97054.56
2022-12-13T19:57:53.825Z,97041.66
2022-12-13T20:00:30.384Z,97050.16
2022-12-13T20:03:02.445Z,97054.34
2022-12-13T20:05:33.990Z,97053.47
2022-12-13T20:08:08.300Z,97045.75
2022-12-13T20:10:40.534Z,97034.56
2022-12-13T20:13:12.369Z,97039.66
2022-12-13T20:15:50.730Z,97039.72
2022-12-13T20:18:22.835Z,97035.44
2022-12-13T20:21:11.571Z,97048.34
2022-12-13T20:23:48.743Z,97031.25
2022-12-13T20:26:23.577Z,97039.84
2022-12-13T20:28:55.087Z,97037.16
2022-12-13T20:31:27.163Z,97031.19
2022-12-13T20:34:02.426Z,97030.34
2022-12-13T20:36:34.877Z,97025.91
2022-12-13T20:39:07.246Z,97026.75
2022-12-13T20:41:38.665Z,97022.38
2022-12-13T20:44:11.475Z,97020.59
2022-12-13T20:46:41.670Z,97018.03
2022-12-13T20:49:13.292Z,97017.19
2022-12-13T20:51:44.129Z,97016.41
2022-12-13T20:54:14.405Z,97022.47
2022-12-13T20:56:44.301Z,97013.84
2022-12-13T20:59:15.435Z,97018.91
2022-12-13T21:01:48.894Z,97015.31
2022-12-13T21:04:20.698Z,97022.19
2022-12-13T21:06:49.725Z,97018.72
2022-12-13T21:09:22.418Z,97001.47
2022-12-13T21:11:52.092Z,97002.25
2022-12-13T21:14:23.492Z,97001.44
2022-12-13T21:16:53.230Z,96992.78
2022-12-13T21:19:25.715Z,96991.94
2022-12-13T21:21:54.774Z,96988.47
2022-12-13T21:24:26.515Z,96991.91
2022-12-13T21:26:56.618Z,96982.56
2022-12-13T21:29:25.335Z,96990.16
2022-12-13T21:31:55.104Z,96990.94
2022-12-13T21:34:25.294Z,96992.66
2022-12-13T21:36:54.223Z,96975.53
2022-12-13T21:39:24.345Z,96991.81
2022-12-13T21:41:53.950Z,96984.88
2022-12-13T21:44:23.044Z,96972.88
2022-12-13T21:49:41.263Z,96973.59
2022-12-13T21:52:10.482Z,96969.31
2022-12-13T21:54:38.755Z,96975.31
2022-12-13T21:57:24.695Z,96977.03
2022-12-13T21:59:52.840Z,96970.94
2022-12-13T22:02:21.175Z,96971.75
2022-12-13T22:04:52.487Z,96975.94
2022-12-13T22:07:23.472Z,96948.41
2022-12-13T22:09:52.668Z,96966.31
2022-12-13T22:12:24.062Z,96956.00
2022-12-13T22:14:53.057Z,96969.59
2022-12-13T22:17:29.715Z,96974.78
2022-12-13T22:20:05.247Z,96977.50
2022-12-13T22:22:33.612Z,96972.19
2022-12-13T22:25:01.995Z,96973.09
2022-12-13T22:27:30.194Z,96971.31
2022-12-13T22:29:58.730Z,96968.97
2022-12-13T22:32:29.987Z,96981.69
2022-12-13T22:34:58.302Z,96974.75
2022-12-13T22:37:28.143Z,96954.84
2022-12-13T22:39:56.209Z,96947.75
2022-12-13T22:42:24.436Z,96946.88
2022-12-13T22:44:52.469Z,96964.41
2022-12-13T22:47:21.194Z,96967.84
2022-12-13T22:49:49.420Z,96965.94
2022-12-13T22:52:17.735Z,96970.41
2022-12-13T22:54:47.391Z,96966.25
2022-12-13T22:57:15.593Z,96973.84
2022-12-13T22:59:43.743Z,96964.16
2022-12-13T23:02:12.071Z,96961.47
2022-12-13T23:04:40.315Z,96933.16
2022-12-13T23:07:08.600Z,96932.81
2022-12-13T23:09:36.766Z,96922.66
2022-12-13T23:12:24.758Z,96939.94
2022-12-13T23:14:52.879Z,96924.34
2022-12-13T23:17:20.946Z,96945.16
2022-12-13T23:19:53.458Z,96951.22
2022-12-13T23:22:22.816Z,96933.91
2022-12-13T23:24:51.313Z,96928.63
2022-12-13T23:27:23.070Z,96939.84
2022-12-13T23:29:51.731Z,96929.53
2022-12-13T23:32:19.940Z,96937.34
2022-12-13T23:34:48.075Z,96937.34
2022-12-13T23:37:16.188Z,96927.91
2022-12-13T23:39:44.374Z,96939.25
2022-12-13T23:42:12.558Z,96945.16
2022-12-13T23:44:43.140Z,96946.78
2022-12-13T23:47:11.417Z,96930.66
2022-12-13T23:49:39.561Z,96921.25
2022-12-13T23:52:07.757Z,96929.66
2022-12-13T23:54:35.901Z,96926.19
2022-12-13T23:57:04.167Z,96916.13
2022-12-13T23:59:32.322Z,96915.94
